Time;durP1;ratioP1;P1;durP2;ratioP2;P2;SDS_P1;SDS_P2;PMS_P1;PMS_P2;Temp;Humidity;BMP_temperature;BMP_pressure;BME280_temperature;BME280_humidity;BME280_pressure;Samples;Min_cycle;Max_cycle;Signal;HPM_P1;HPM_P2
2021/07/09 00:01:43;;;;;;;8.98;8.20;;;;;;;20.51;84.99;97493.09;5003272;28;20084;-64
2021/07/09 00:04:09;;;;;;;9.60;8.32;;;;;;;20.52;84.17;97477.78;5001646;28;20088;-63
2021/07/09 00:06:35;;;;;;;10.20;8.75;;;;;;;20.62;84.68;97505.78;5003308;28;20108;-63
2021/07/09 00:09:03;;;;;;;9.93;8.73;;;;;;;19.99;84.75;97405.38;5001742;28;20088;-63
2021/07/09 00:11:48;;;;;;;9.20;8.40;;;;;;;20.95;83.79;97540.69;4891112;28;20004734;-63
2021/07/09 00:14:18;;;;;;;9.70;8.88;;;;;;;20.99;84.48;97541.47;5005183;28;20262;-63
2021/07/09 00:16:46;;;;;;;9.88;8.35;;;;;;;21.06;83.04;97541.34;5004860;28;20112;-63
2021/07/09 00:19:12;;;;;;;9.70;8.65;;;;;;;20.91;83.74;97540.72;5004682;28;20078;-65
2021/07/09 00:21:38;;;;;;;9.60;8.38;;;;;;;20.81;84.48;97530.44;5004673;28;20030;-64
2021/07/09 00:24:05;;;;;;;10.02;9.00;;;;;;;20.83;84.27;97532.81;5004779;28;20038;-63
2021/07/09 00:26:31;;;;;;;8.90;8.10;;;;;;;20.84;83.87;97528.78;5004688;28;20038;-62
2021/07/09 00:29:00;;;;;;;9.75;8.85;;;;;;;20.65;84.92;97524.66;5004802;28;20870;-63
2021/07/09 00:31:29;;;;;;;10.05;9.15;;;;;;;20.62;85.33;97527.50;5006358;28;20430;-63
2021/07/09 00:33:56;;;;;;;9.30;8.35;;;;;;;20.68;85.21;97525.81;5004823;28;20045;-63
2021/07/09 00:36:22;;;;;;;10.07;9.00;;;;;;;20.47;84.99;97510.03;5006228;28;20026;-63
2021/07/09 00:38:47;;;;;;;10.23;9.23;;;;;;;20.12;85.97;97515.31;5004512;28;20042;-63
2021/07/09 00:41:13;;;;;;;9.95;9.05;;;;;;;20.50;86.41;97530.91;5004942;28;20030;-62
2021/07/09 00:43:39;;;;;;;9.27;8.38;;;;;;;20.25;85.54;97491.84;5005812;28;20125;-63
2021/07/09 00:46:05;;;;;;;9.38;8.38;;;;;;;20.29;86.81;97529.19;5006168;28;20037;-63
2021/07/09 00:48:31;;;;;;;9.45;8.65;;;;;;;20.42;86.27;97523.78;5004370;28;20455;-62
2021/07/09 00:51:00;;;;;;;10.02;8.85;;;;;;;20.05;86.42;97478.81;5006172;28;20033;-63
2021/07/09 00:53:26;;;;;;;11.02;9.15;;;;;;;20.46;85.94;97527.34;5020748;28;20495;-62
2021/07/09 00:55:52;;;;;;;9.43;8.50;;;;;;;20.37;86.29;97521.44;5020858;28;20037;-63
2021/07/09 00:58:18;;;;;;;9.43;8.52;;;;;;;20.41;85.80;97522.19;5005527;28;20030;-63
2021/07/09 01:00:44;;;;;;;9.85;8.88;;;;;;;20.39;85.73;97524.63;5005671;28;20030;-63
2021/07/09 01:03:10;;;;;;;9.48;8.57;;;;;;;20.27;86.42;97517.56;5020351;28;20032;-63
2021/07/09 01:05:35;;;;;;;9.73;8.77;;;;;;;20.20;85.61;97514.03;5006053;28;20046;-63
2021/07/09 01:08:03;;;;;;;9.70;8.65;;;;;;;20.18;86.32;97525.72;5004626;28;20030;-63
2021/07/09 01:10:29;;;;;;;9.80;8.90;;;;;;;20.29;85.72;97532.00;5006038;28;20037;-64
2021/07/09 01:12:55;;;;;;;9.48;8.50;;;;;;;20.27;86.11;97525.19;5005837;28;20036;-62
2021/07/09 01:15:22;;;;;;;10.00;8.73;;;;;;;20.14;86.57;97524.19;5005639;28;20128;-62
2021/07/09 01:17:48;;;;;;;9.48;8.57;;;;;;;19.77;87.12;97484.81;5020418;28;20030;-62
2021/07/09 01:20:17;;;;;;;9.77;8.98;;;;;;;20.05;87.37;97518.22;5003662;28;20072;-63
2021/07/09 01:22:44;;;;;;;9.02;8.05;;;;;;;19.99;87.72;97517.09;5020361;28;20022;-63
2021/07/09 01:25:24;;;;;;;9.52;8.52;;;;;;;20.05;88.14;97516.19;5005596;28;20042;-62
2021/07/09 01:28:00;;;;;;;9.15;8.35;;;;;;;20.07;87.68;97527.03;5005687;28;20105;-63
2021/07/09 01:30:26;;;;;;;9.70;8.80;;;;;;;20.08;87.01;97517.34;5005820;28;20041;-64
2021/07/09 01:32:53;;;;;;;10.05;9.02;;;;;;;20.04;87.66;97519.44;5005641;28;20492;-63
2021/07/09 01:35:21;;;;;;;10.20;9.20;;;;;;;19.94;88.07;97514.72;5003613;28;20100;-64
2021/07/09 01:38:00;;;;;;;10.15;9.13;;;;;;;19.95;87.76;97507.91;5005429;28;20523;-63
2021/07/09 01:40:27;;;;;;;9.80;8.77;;;;;;;19.93;87.76;97516.75;5003409;28;20030;-64
2021/07/09 01:42:52;;;;;;;10.30;9.35;;;;;;;19.86;88.12;97507.59;5005153;28;20468;-62
2021/07/09 01:45:18;;;;;;;9.57;8.63;;;;;;;19.86;88.61;97507.59;5003918;28;20041;-63
2021/07/09 01:47:43;;;;;;;9.93;8.93;;;;;;;19.92;88.25;97505.91;5016043;28;20171;-64
2021/07/09 01:50:09;;;;;;;9.98;8.95;;;;;;;19.80;89.20;97512.09;5005249;28;20038;-63
2021/07/09 01:52:35;;;;;;;10.30;9.18;;;;;;;19.81;89.02;97510.88;5004982;28;20045;-63
2021/07/09 01:55:02;;;;;;;9.52;8.60;;;;;;;19.50;89.00;97479.91;5005013;28;20042;-63
2021/07/09 01:57:28;;;;;;;10.63;9.00;;;;;;;19.86;88.32;97513.22;5004942;28;20037;-63
2021/07/09 01:59:55;;;;;;;12.32;9.20;;;;;;;19.46;88.78;97469.91;5003409;28;20124;-62
2021/07/09 02:02:21;;;;;;;9.07;8.27;;;;;;;19.62;89.74;97511.50;5004800;28;20154;-63
2021/07/09 02:04:52;;;;;;;10.82;9.82;;;;;;;19.52;90.63;97511.19;5004161;28;20425;-62
2021/07/09 02:07:19;;;;;;;10.23;9.23;;;;;;;19.07;90.21;97430.97;5003417;28;20120;-63
2021/07/09 02:09:47;;;;;;;10.43;9.52;;;;;;;19.47;90.87;97519.28;5004217;28;20058;-63
2021/07/09 02:12:15;;;;;;;10.85;8.90;;;;;;;19.00;89.33;97428.22;5004622;28;20030;-62
2021/07/09 02:14:41;;;;;;;10.45;8.73;;;;;;;19.23;89.09;97476.16;5002897;28;20044;-63
2021/07/09 02:17:12;;;;;;;10.07;9.10;;;;;;;19.54;89.27;97508.75;5004239;28;20034;-63
2021/07/09 02:19:39;;;;;;;9.40;8.45;;;;;;;19.46;88.70;97498.81;5002707;28;20062;-62
2021/07/09 02:22:08;;;;;;;10.98;9.45;;;;;;;19.52;89.05;97510.41;5004734;28;20455;-62
2021/07/09 02:24:34;;;;;;;9.88;8.93;;;;;;;19.34;89.75;97487.31;5002809;28;20573;-63
2021/07/09 02:27:01;;;;;;;12.60;9.98;;;;;;;19.47;89.95;97514.44;5002882;28;20029;-62
2021/07/09 02:29:27;;;;;;;9.95;9.10;;;;;;;19.50;89.73;97508.00;5004276;28;20069;-62
2021/07/09 02:31:53;;;;;;;10.50;9.40;;;;;;;18.89;89.01;97402.25;5004302;28;20030;-62
2021/07/09 02:34:18;;;;;;;10.40;9.30;;;;;;;19.48;89.70;97510.44;5002418;28;20033;-62
2021/07/09 02:36:44;;;;;;;10.63;9.63;;;;;;;19.57;89.68;97506.34;5002611;28;20041;-63
2021/07/09 02:39:11;;;;;;;10.10;9.10;;;;;;;19.62;88.50;97514.31;5002794;28;20037;-62
2021/07/09 02:41:37;;;;;;;9.48;8.35;;;;;;;19.58;88.66;97515.13;5004639;28;20037;-63
2021/07/09 02:44:03;;;;;;;9.07;8.25;;;;;;;19.40;88.44;97494.88;5002774;28;20093;-63
2021/07/09 02:46:28;;;;;;;13.00;9.07;;;;;;;19.41;88.44;97504.09;5003908;28;20611;-63
2021/07/09 02:48:54;;;;;;;9.77;8.38;;;;;;;19.49;88.36;97512.03;5019893;28;20082;-62
2021/07/09 02:51:20;;;;;;;9.85;8.85;;;;;;;19.22;88.87;97497.00;5023486;28;20511;-63
2021/07/09 02:53:46;;;;;;;10.40;9.05;;;;;;;19.00;89.38;97478.75;5022083;28;20068;-62
2021/07/09 02:56:11;;;;;;;10.63;9.05;;;;;;;19.34;88.79;97521.81;5024107;28;20068;-61
2021/07/09 02:58:37;;;;;;;9.45;8.20;;;;;;;19.35;88.51;97512.16;5022037;28;20056;-64
2021/07/09 03:01:03;;;;;;;10.32;7.95;;;;;;;19.09;89.30;97515.59;5023628;28;20467;-62
2021/07/09 03:03:28;;;;;;;9.00;8.13;;;;;;;19.16;89.23;97512.72;5023769;28;20028;-63
2021/07/09 03:05:54;;;;;;;8.85;8.05;;;;;;;19.00;88.26;97473.16;5023434;28;20033;-62
2021/07/09 03:08:19;;;;;;;10.05;8.57;;;;;;;19.28;88.00;97512.22;5023263;28;20439;-63
2021/07/09 03:10:45;;;;;;;10.32;9.25;;;;;;;19.28;88.22;97506.59;5021650;28;20127;-62
2021/07/09 03:13:10;;;;;;;12.88;9.65;;;;;;;19.16;89.41;97501.50;5021683;28;20026;-62
2021/07/09 03:15:36;;;;;;;10.18;9.15;;;;;;;19.05;89.90;97488.75;5021341;28;20451;-63
2021/07/09 03:18:01;;;;;;;11.43;9.63;;;;;;;18.91;89.10;97458.78;5023431;28;20058;-62
2021/07/09 03:20:27;;;;;;;11.02;9.93;;;;;;;19.34;89.22;97510.59;5021952;28;20548;-62
2021/07/09 03:22:52;;;;;;;10.48;9.38;;;;;;;19.47;87.86;97520.06;5021919;28;20034;-63
2021/07/09 03:25:18;;;;;;;9.95;8.93;;;;;;;19.52;86.82;97521.66;5021578;28;20484;-63
2021/07/09 03:27:43;;;;;;;8.77;7.97;;;;;;;19.51;85.91;97523.66;5021722;28;20057;-63
2021/07/09 03:30:10;;;;;;;10.30;7.90;;;;;;;19.32;85.49;97487.72;5021460;28;20052;-63
2021/07/09 03:32:35;;;;;;;9.10;8.25;;;;;;;19.67;85.08;97528.69;5021600;28;20249;-63
2021/07/09 03:35:02;;;;;;;9.90;8.40;;;;;;;19.65;84.72;97524.72;5021645;28;20584;-64
2021/07/09 03:37:28;;;;;;;8.40;7.60;;;;;;;19.71;84.25;97523.84;5023172;28;20026;-62
2021/07/09 03:39:53;;;;;;;11.32;8.30;;;;;;;19.81;84.31;97519.28;5021967;28;20435;-64
2021/07/09 03:42:19;;;;;;;8.60;7.72;;;;;;;19.91;83.15;97521.19;5021629;28;20040;-63
2021/07/09 03:44:44;;;;;;;8.85;7.55;;;;;;;19.66;82.69;97489.75;5023520;28;20038;-63
2021/07/09 03:47:10;;;;;;;10.45;7.38;;;;;;;19.60;82.96;97478.16;5021338;28;20040;-63
2021/07/09 03:49:35;;;;;;;9.50;8.60;;;;;;;19.93;82.84;97521.59;5007722;28;20045;-61
2021/07/09 03:52:01;;;;;;;12.23;8.48;;;;;;;19.80;82.30;97498.03;5005669;28;20029;-62
2021/07/09 03:54:26;;;;;;;16.30;7.97;;;;;;;20.11;81.79;97537.00;5007248;28;20821;-63
2021/07/09 03:56:51;;;;;;;8.32;7.63;;;;;;;20.22;81.53;97540.53;5005893;28;20044;-63
2021/07/09 03:59:17;;;;;;;11.23;7.85;;;;;;;19.95;81.55;97477.75;5005792;28;20042;-63
2021/07/09 04:01:42;;;;;;;8.65;7.57;;;;;;;20.48;80.32;97516.47;5006889;28;20025;-62
2021/07/09 04:04:08;;;;;;;11.02;7.43;;;;;;;20.38;79.20;97484.44;5006842;28;20042;-63
2021/07/09 04:06:33;;;;;;;8.00;7.20;;;;;;;20.71;78.91;97524.94;5006420;28;20382;-63
2021/07/09 04:08:59;;;;;;;11.90;7.95;;;;;;;20.75;79.33;97526.50;5006807;28;20037;-62
2021/07/09 04:11:24;;;;;;;7.55;6.95;;;;;;;20.76;78.44;97511.19;5006480;28;20037;-64
2021/07/09 04:13:50;;;;;;;10.52;8.48;;;;;;;20.98;78.25;97517.31;5005362;28;20127;-62
2021/07/09 04:16:15;;;;;;;8.55;7.72;;;;;;;21.09;77.24;97520.75;5006331;28;20139;-62
2021/07/09 04:18:41;;;;;;;8.45;7.55;;;;;;;20.94;77.31;97496.84;5006808;28;20041;-63
2021/07/09 04:21:06;;;;;;;7.95;7.20;;;;;;;21.09;76.80;97512.31;5004827;28;20052;-63
2021/07/09 04:23:32;;;;;;;8.32;7.53;;;;;;;21.29;76.24;97512.38;5006330;28;20433;-62
2021/07/09 04:25:57;;;;;;;7.85;7.15;;;;;;;21.21;76.61;97513.72;5006420;28;20535;-62
2021/07/09 04:28:23;;;;;;;9.13;8.23;;;;;;;21.17;75.81;97484.78;5004367;28;20037;-65
2021/07/09 04:30:49;;;;;;;13.02;7.45;;;;;;;21.21;76.16;97491.19;5004416;28;20099;-63
2021/07/09 04:33:16;;;;;;;7.85;7.22;;;;;;;21.61;74.56;97516.19;5006315;28;20055;-64
2021/07/09 04:35:41;;;;;;;8.88;8.07;;;;;;;21.63;74.56;97525.03;5005821;28;20485;-61
2021/07/09 04:38:06;;;;;;;8.50;7.60;;;;;;;21.84;73.90;97535.13;5006491;28;20040;-62
2021/07/09 04:40:32;;;;;;;9.35;8.48;;;;;;;21.38;73.69;97440.13;5006411;28;20042;-62
2021/07/09 04:42:57;;;;;;;8.65;7.80;;;;;;;21.34;73.86;97442.19;5005087;28;20049;-63
2021/07/09 04:45:23;;;;;;;11.88;8.80;;;;;;;21.97;74.12;97510.69;5004609;28;20075;-63
2021/07/09 04:47:48;;;;;;;9.68;8.68;;;;;;;22.11;73.75;97516.06;5010474;28;20041;-62
2021/07/09 04:50:14;;;;;;;13.60;9.43;;;;;;;20.72;73.63;97290.03;5026098;28;20131;-62
2021/07/09 04:52:40;;;;;;;9.52;8.52;;;;;;;22.22;73.94;97523.03;5025764;28;20049;-64
2021/07/09 04:55:06;;;;;;;10.35;9.18;;;;;;;22.34;73.29;97516.75;5024556;28;20049;-64
2021/07/09 04:57:32;;;;;;;10.48;9.32;;;;;;;22.45;73.27;97525.78;5025702;28;20033;-64
2021/07/09 04:59:57;;;;;;;10.98;8.88;;;;;;;22.64;72.61;97514.91;5023845;28;20044;-64
2021/07/09 05:02:23;;;;;;;13.65;9.40;;;;;;;22.92;71.69;97508.59;5023946;28;20034;-63
2021/07/09 05:04:48;;;;;;;10.98;9.48;;;;;;;22.97;71.72;97505.25;5018232;28;20465;-65
2021/07/09 05:07:13;;;;;;;13.20;11.85;;;;;;;22.75;73.78;97507.78;5023964;28;20412;-64
2021/07/09 05:09:39;;;;;;;12.35;11.23;;;;;;;23.02;73.38;97510.38;5023966;28;20140;-65
2021/07/09 05:12:05;;;;;;;14.05;11.93;;;;;;;23.13;73.18;97508.88;5025449;28;20033;-65
2021/07/09 05:14:30;;;;;;;11.57;10.57;;;;;;;23.32;72.45;97498.72;5025781;28;20042;-65
2021/07/09 05:16:56;;;;;;;12.32;11.10;;;;;;;22.19;71.69;97325.56;5023829;28;20037;-64
2021/07/09 05:19:21;;;;;;;12.95;11.68;;;;;;;23.53;71.88;97507.47;5024906;28;20054;-65
2021/07/09 05:21:47;;;;;;;13.43;12.23;;;;;;;23.00;72.49;97408.28;5023428;28;20068;-64
2021/07/09 05:24:13;;;;;;;15.70;12.88;;;;;;;23.29;72.13;97426.09;5024896;28;20037;-64
2021/07/09 05:26:39;;;;;;;12.65;11.45;;;;;;;23.75;71.91;97494.31;5025160;28;20449;-63
2021/07/09 05:29:05;;;;;;;13.75;12.55;;;;;;;23.74;71.49;97498.38;5023037;28;20052;-64
2021/07/09 05:31:34;;;;;;;13.48;12.30;;;;;;;23.70;71.53;97474.25;5023665;28;20116;-65
2021/07/09 05:34:01;;;;;;;13.40;11.98;;;;;;;23.20;71.86;97397.66;5023849;28;20049;-63
2021/07/09 05:36:27;;;;;;;14.25;12.88;;;;;;;23.61;70.96;97431.69;5022972;28;20091;-65
2021/07/09 05:38:52;;;;;;;13.45;12.25;;;;;;;24.20;70.27;97488.59;5022984;28;20041;-63
2021/07/09 05:41:17;;;;;;;12.95;11.75;;;;;;;23.21;68.79;97322.91;5023121;28;20021;-64
2021/07/09 05:43:43;;;;;;;13.55;12.45;;;;;;;24.11;68.99;97454.50;5023052;28;20361;-63
2021/07/09 05:46:10;;;;;;;13.70;11.82;;;;;;;24.48;68.78;97504.75;5024547;28;20109;-64
2021/07/09 05:48:35;;;;;;;13.73;12.30;;;;;;;24.02;69.03;97433.75;5019919;28;20032;-63
2021/07/09 05:51:01;;;;;;;13.82;12.43;;;;;;;24.26;69.42;97484.00;5004718;28;20034;-64
2021/07/09 05:53:27;;;;;;;13.48;12.13;;;;;;;24.34;68.71;97444.91;5003228;28;20111;-65
2021/07/09 05:55:52;;;;;;;13.68;12.38;;;;;;;24.32;70.93;97504.84;5005306;28;20522;-66
2021/07/09 05:58:18;;;;;;;13.20;11.88;;;;;;;24.20;69.05;97434.78;5006839;28;20036;-65
2021/07/09 06:00:44;;;;;;;12.52;11.30;;;;;;;24.60;69.95;97498.31;5021045;28;20416;-62
2021/07/09 06:03:09;;;;;;;12.50;10.77;;;;;;;24.69;68.66;97472.94;5015904;28;20129;-64
2021/07/09 06:05:35;;;;;;;12.98;11.68;;;;;;;24.39;70.39;97459.28;5017596;28;20038;-61
2021/07/09 06:08:05;;;;;;;15.10;11.70;;;;;;;24.84;70.04;97501.63;5011280;28;20030;-68
2021/07/09 06:10:30;;;;;;;11.95;10.90;;;;;;;24.31;69.05;97426.78;5011519;28;20032;-66
2021/07/09 06:12:56;;;;;;;12.50;11.43;;;;;;;25.29;68.05;97477.41;5016515;28;20113;-58
2021/07/09 06:15:22;;;;;;;12.13;10.93;;;;;;;25.25;67.29;97431.38;5003102;28;20493;-60
2021/07/09 06:17:47;;;;;;;12.63;11.20;;;;;;;25.69;65.52;97442.84;5007978;28;20040;-56
2021/07/09 06:20:13;;;;;;;12.27;11.13;;;;;;;26.25;65.30;97481.31;5016138;28;20085;-58
2021/07/09 06:22:39;;;;;;;12.15;10.98;;;;;;;26.43;63.66;97480.63;5013229;28;20535;-68
2021/07/09 06:25:05;;;;;;;12.40;11.15;;;;;;;26.54;62.96;97481.78;5016833;28;20030;-58
2021/07/09 06:27:30;;;;;;;11.32;10.35;;;;;;;26.81;60.10;97471.84;4960973;28;20084;-66
2021/07/09 06:29:56;;;;;;;11.10;9.95;;;;;;;26.99;59.73;97478.38;5014763;28;20111;-58
2021/07/09 06:32:21;;;;;;;10.48;8.65;;;;;;;26.74;56.57;97472.91;5008594;28;20131;-58
2021/07/09 06:34:47;;;;;;;8.60;7.90;;;;;;;26.65;55.35;97447.31;5008807;28;20136;-63
2021/07/09 06:37:12;;;;;;;10.68;9.73;;;;;;;27.11;58.23;97468.16;5014656;28;20483;-75
2021/07/09 06:39:38;;;;;;;8.88;8.23;;;;;;;25.80;57.13;97488.66;5003673;28;20132;-71
2021/07/09 06:42:03;;;;;;;7.50;7.00;;;;;;;25.61;53.86;97433.00;5002890;28;20048;-68
2021/07/09 06:44:28;;;;;;;8.40;7.63;;;;;;;26.32;53.28;97463.19;5007944;28;20152;-69
2021/07/09 06:46:54;;;;;;;8.18;7.53;;;;;;;26.82;53.67;97456.34;5003382;28;20026;-68
2021/07/09 06:49:19;;;;;;;8.73;8.00;;;;;;;26.63;54.09;97401.47;5012288;28;20486;-63
2021/07/09 06:51:45;;;;;;;8.27;7.57;;;;;;;26.81;49.67;97449.88;5012690;28;20429;-64
2021/07/09 06:54:10;;;;;;;7.45;6.80;;;;;;;27.15;48.16;97451.72;5005011;28;20121;-66
2021/07/09 06:56:36;;;;;;;7.03;6.60;;;;;;;27.42;46.22;97448.97;5013468;28;20028;-59
2021/07/09 06:59:01;;;;;;;6.20;5.68;;;;;;;27.70;43.59;97454.22;5016068;28;20482;-67
2021/07/09 07:01:26;;;;;;;6.60;5.57;;;;;;;27.99;43.17;97448.88;5014803;28;20041;-66
2021/07/09 07:03:52;;;;;;;7.20;6.68;;;;;;;27.35;43.94;97359.00;5018256;28;20089;-66
2021/07/09 07:06:17;;;;;;;7.38;6.85;;;;;;;27.86;45.11;97428.28;5010017;28;20041;-68
2021/07/09 07:08:43;;;;;;;7.88;7.38;;;;;;;28.19;45.29;97439.81;5005430;28;20037;-65
2021/07/09 07:11:09;;;;;;;8.00;7.40;;;;;;;28.32;44.69;97436.75;4989368;28;20542;-61
2021/07/09 07:13:35;;;;;;;7.00;6.60;;;;;;;28.44;44.67;97432.94;5018305;28;20034;-60
2021/07/09 07:16:00;;;;;;;7.45;6.95;;;;;;;28.08;44.14;97357.69;5003739;28;20165;-68
2021/07/09 07:18:26;;;;;;;7.78;7.10;;;;;;;28.71;43.83;97436.50;5023531;28;20036;-68
2021/07/09 07:20:53;;;;;;;7.05;6.57;;;;;;;28.75;43.68;97433.50;5011204;28;20057;-62
2021/07/09 07:23:19;;;;;;;7.18;6.72;;;;;;;28.51;43.36;97389.88;5006851;28;20037;-67
2021/07/09 07:25:46;;;;;;;7.50;6.90;;;;;;;28.93;42.70;97433.41;5007186;28;20121;-59
2021/07/09 07:28:15;;;;;;;7.85;7.20;;;;;;;28.76;42.45;97398.78;5019508;28;20488;-61
2021/07/09 07:30:41;;;;;;;8.18;7.35;;;;;;;28.32;43.67;97374.06;5014680;28;20543;-75
2021/07/09 07:33:07;;;;;;;7.78;7.20;;;;;;;29.02;42.51;97422.72;5016137;28;20475;-65
2021/07/09 07:35:32;;;;;;;7.13;6.68;;;;;;;29.24;42.05;97433.91;5014220;28;20038;-67
2021/07/09 07:37:58;;;;;;;7.55;7.05;;;;;;;29.37;41.93;97423.81;5006195;28;20038;-68
2021/07/09 07:40:24;;;;;;;7.22;6.82;;;;;;;28.90;41.63;97425.81;5010660;28;20099;-67
2021/07/09 07:42:50;;;;;;;7.15;6.65;;;;;;;28.32;42.63;97413.97;5005931;28;20038;-70
2021/07/09 07:45:16;;;;;;;7.38;6.88;;;;;;;28.57;44.19;97422.94;5006400;28;20099;-61
2021/07/09 07:47:41;;;;;;;7.18;6.57;;;;;;;29.03;43.13;97426.38;5010478;28;20029;-66
2021/07/09 07:50:09;;;;;;;7.03;6.43;;;;;;;29.21;43.54;97420.59;5005632;28;20034;-73
2021/07/09 07:52:35;;;;;;;7.20;6.50;;;;;;;29.22;42.97;97413.63;5006514;28;20033;-67
2021/07/09 07:55:00;;;;;;;7.50;6.90;;;;;;;28.87;43.09;97415.38;5014467;28;20041;-65
2021/07/09 07:57:26;;;;;;;7.50;7.10;;;;;;;28.22;42.13;97318.38;5018005;28;20033;-72
2021/07/09 07:59:51;;;;;;;6.80;6.22;;;;;;;28.49;42.18;97338.22;5024917;28;20445;-71
2021/07/09 08:02:17;;;;;;;7.20;6.70;;;;;;;29.03;41.75;97417.81;5013070;28;20037;-65
2021/07/09 08:04:44;;;;;;;6.70;6.25;;;;;;;28.43;43.00;97374.34;5005260;28;20076;-68
2021/07/09 08:07:10;;;;;;;7.38;6.95;;;;;;;27.77;42.38;97226.06;5011797;28;20059;-71
2021/07/09 08:09:36;;;;;;;7.93;7.20;;;;;;;28.38;42.40;97390.03;5016358;28;20034;-68
2021/07/09 08:12:02;;;;;;;7.88;6.35;;;;;;;28.57;40.17;97413.59;5014552;28;20484;-67
2021/07/09 08:14:28;;;;;;;7.35;6.22;;;;;;;27.93;41.39;97308.34;5021520;28;20513;-66
2021/07/09 08:16:54;;;;;;;6.65;6.10;;;;;;;28.78;39.46;97416.22;5006793;28;20037;-63
2021/07/09 08:19:21;;;;;;;6.85;6.38;;;;;;;29.07;40.25;97413.53;5019062;28;20156;-65
2021/07/09 08:21:47;;;;;;;7.97;7.38;;;;;;;29.44;39.72;97419.81;5011217;28;20536;-65
2021/07/09 08:24:17;;;;;;;14.45;12.73;;;;;;;29.75;38.66;97416.59;5022201;28;20045;-64
2021/07/09 08:26:42;;;;;;;7.60;7.15;;;;;;;29.78;38.58;97370.69;5022055;28;20029;-67
2021/07/09 08:29:08;;;;;;;7.05;6.65;;;;;;;30.33;38.44;97411.75;5023721;28;20498;-60
2021/07/09 08:31:34;;;;;;;9.98;8.98;;;;;;;28.66;39.40;97137.75;5019015;28;20420;-64
2021/07/09 08:33:59;;;;;;;11.40;8.68;;;;;;;30.44;39.34;97397.66;5013013;28;20026;-66
2021/07/09 08:36:25;;;;;;;9.98;9.07;;;;;;;30.56;36.95;97379.41;5011031;28;20048;-61
2021/07/09 08:38:52;;;;;;;7.78;7.18;;;;;;;31.00;36.94;97402.19;5004568;28;20101;-62
2021/07/09 08:41:17;;;;;;;7.35;6.75;;;;;;;31.08;36.69;97408.31;5007138;28;20032;-60
2021/07/09 08:43:43;;;;;;;7.03;6.47;;;;;;;31.19;35.85;97402.75;5005517;28;20420;-62
2021/07/09 08:46:09;;;;;;;7.57;6.82;;;;;;;31.13;35.64;97399.00;5013419;28;20489;-61
2021/07/09 08:48:35;;;;;;;7.45;6.95;;;;;;;30.97;35.85;97408.16;5015530;28;20296;-60
2021/07/09 08:51:01;;;;;;;8.30;7.70;;;;;;;30.28;39.79;97378.16;5015953;28;20048;-65
2021/07/09 08:53:27;;;;;;;7.32;6.63;;;;;;;30.38;39.89;97396.75;5009906;28;20408;-67
2021/07/09 08:55:52;;;;;;;8.75;8.07;;;;;;;29.73;39.24;97379.94;5018038;28;20526;-61
2021/07/09 08:58:18;;;;;;;19.90;17.98;;;;;;;30.06;41.46;97397.72;5005865;28;20034;-60
2021/07/09 09:00:44;;;;;;;13.35;12.15;;;;;;;30.23;39.13;97372.31;5024093;28;20041;-63
2021/07/09 09:03:18;;;;;;;10.02;9.23;;;;;;;30.39;39.47;97358.31;5005783;28;20489;-66
2021/07/09 09:05:44;;;;;;;7.25;6.75;;;;;;;30.40;38.72;97382.75;5012330;28;20041;-61
2021/07/09 09:08:13;;;;;;;8.57;7.70;;;;;;;29.96;39.90;97356.22;5010804;28;20022;-61
2021/07/09 09:10:41;;;;;;;9.43;8.63;;;;;;;30.00;39.23;97391.13;5006327;28;20192;-64
2021/07/09 09:13:14;;;;;;;8.38;7.55;;;;;;;30.04;38.26;97382.34;5014489;28;20034;-64
2021/07/09 09:15:42;;;;;;;7.75;7.05;;;;;;;30.40;36.44;97381.97;5009035;28;20045;-61
2021/07/09 09:18:21;;;;;;;8.07;7.30;;;;;;;29.38;36.59;97182.75;5011521;28;20057;-65
2021/07/09 09:21:00;;;;;;;10.48;9.38;;;;;;;30.71;35.64;97345.81;4962175;28;1192780;-64
2021/07/09 09:23:27;;;;;;;7.45;6.80;;;;;;;31.18;35.16;97383.97;5004568;28;20048;-62
2021/07/09 09:25:54;;;;;;;9.60;8.65;;;;;;;30.98;34.27;97347.56;5003571;28;20505;-63
2021/07/09 09:28:20;;;;;;;8.25;7.55;;;;;;;30.86;34.94;97335.16;5004888;28;20366;-63
2021/07/09 09:30:50;;;;;;;8.18;7.38;;;;;;;31.55;34.10;97380.06;5005002;28;20096;-63
2021/07/09 09:33:16;;;;;;;7.38;6.97;;;;;;;31.64;33.36;97365.63;5004735;28;20048;-63
2021/07/09 09:35:44;;;;;;;7.97;7.38;;;;;;;31.85;32.99;97370.03;5002880;28;20033;-63
2021/07/09 09:38:14;;;;;;;9.73;6.95;;;;;;;32.04;33.79;97370.53;5005218;28;20546;-62
2021/07/09 09:40:43;;;;;;;8.20;7.63;;;;;;;31.79;32.82;97377.00;5005209;28;20037;-64
2021/07/09 09:43:11;;;;;;;8.27;7.15;;;;;;;31.29;33.30;97303.97;5004724;28;20044;-63
2021/07/09 09:45:38;;;;;;;6.90;6.22;;;;;;;31.90;31.46;97371.41;5003821;28;20076;-62
2021/07/09 09:48:12;;;;;;;7.20;6.50;;;;;;;31.34;32.23;97369.13;5008290;28;20050;-62
2021/07/09 09:50:43;;;;;;;10.20;8.05;;;;;;;31.71;33.30;97373.00;5003123;28;20058;-63
2021/07/09 09:53:09;;;;;;;11.50;7.70;;;;;;;31.48;32.48;97374.00;5013482;28;20120;-63
2021/07/09 09:55:35;;;;;;;7.97;7.28;;;;;;;31.38;31.42;97372.59;5022746;28;20151;-63
2021/07/09 09:58:26;;;;;;;7.53;7.03;;;;;;;31.24;33.59;97364.81;5014042;28;20108;-63
2021/07/09 10:00:52;;;;;;;7.60;6.85;;;;;;;31.47;33.51;97378.97;5001807;28;20601;-63
2021/07/09 10:03:19;;;;;;;8.05;7.53;;;;;;;31.69;33.08;97358.38;5004682;28;20034;-61
2021/07/09 10:05:46;;;;;;;7.97;7.35;;;;;;;31.54;32.12;97358.47;5004224;28;20037;-59
2021/07/09 10:08:14;;;;;;;27.70;16.05;;;;;;;31.70;33.00;97357.06;5004189;28;20038;-60
2021/07/09 10:10:42;;;;;;;7.47;6.97;;;;;;;32.01;33.50;97360.84;5004620;28;20509;-61
2021/07/09 10:13:10;;;;;;;9.27;8.43;;;;;;;32.14;32.54;97357.56;5004259;28;20041;-60
2021/07/09 10:15:39;;;;;;;7.68;7.18;;;;;;;31.21;33.25;97315.06;5002822;28;20044;-59
2021/07/09 10:18:08;;;;;;;7.40;6.75;;;;;;;31.50;32.72;97345.66;5004180;28;20444;-58
2021/07/09 10:20:34;;;;;;;9.88;7.15;;;;;;;31.47;33.81;97344.59;5002513;28;20452;-59
2021/07/09 10:23:01;;;;;;;7.55;6.95;;;;;;;31.96;33.75;97340.72;5003979;28;20044;-59
2021/07/09 10:25:27;;;;;;;7.20;6.70;;;;;;;31.77;32.86;97296.47;5004577;28;20034;-61
2021/07/09 10:27:53;;;;;;;6.45;6.00;;;;;;;31.95;32.54;97288.34;5003878;28;20080;-62
2021/07/09 10:30:19;;;;;;;8.02;7.43;;;;;;;32.10;32.98;97291.88;5004595;28;20057;-61
2021/07/09 10:32:48;;;;;;;9.35;8.57;;;;;;;32.18;33.24;97295.84;5004025;28;20518;-65
2021/07/09 10:35:49;;;;;;;7.82;6.80;;;;;;;32.70;33.56;97319.50;5004255;28;20095;-62
2021/07/09 10:38:19;;;;;;;7.53;6.90;;;;;;;31.85;33.53;97311.97;4962336;28;20050;-61
2021/07/09 10:40:46;;;;;;;8.30;7.60;;;;;;;31.63;34.65;97311.69;5000049;28;20496;-60
2021/07/09 10:43:14;;;;;;;7.65;6.95;;;;;;;31.30;35.83;97319.88;5003713;28;20112;-68
2021/07/09 10:45:41;;;;;;;7.43;6.75;;;;;;;30.82;35.39;97310.91;5007041;28;20144;-60
2021/07/09 10:48:16;;;;;;;8.00;6.88;;;;;;;31.46;35.75;97307.84;5010254;28;20042;-58
2021/07/09 10:50:46;;;;;;;8.48;7.38;;;;;;;31.41;35.47;97300.00;5013766;28;20044;-67
2021/07/09 10:53:11;;;;;;;7.60;6.90;;;;;;;31.92;34.87;97305.75;5010091;28;20113;-65
2021/07/09 10:55:46;;;;;;;8.90;8.18;;;;;;;31.94;34.94;97303.19;5005492;28;20120;-61
2021/07/09 10:58:41;;;;;;;10.38;8.85;;;;;;;32.32;34.58;97297.78;5018593;28;20034;-67
2021/07/09 11:01:18;;;;;;;7.78;6.97;;;;;;;32.25;33.86;97295.38;5009796;28;20049;-63
2021/07/09 11:04:21;;;;;;;7.20;6.60;;;;;;;32.64;33.07;97292.84;5021052;28;20033;-68
2021/07/09 11:06:47;;;;;;;8.07;7.45;;;;;;;33.12;33.07;97287.91;5032387;28;20120;-62
2021/07/09 11:09:13;;;;;;;7.43;7.03;;;;;;;32.72;32.19;97276.72;5011786;28;20419;-60
2021/07/09 11:11:52;;;;;;;7.70;7.22;;;;;;;32.68;33.08;97276.16;5003489;28;20050;-60
2021/07/09 11:14:37;;;;;;;8.93;8.32;;;;;;;33.38;32.51;97277.06;5003206;28;20034;-62
2021/07/09 11:17:23;;;;;;;8.90;7.97;;;;;;;33.65;31.50;97273.47;5006395;28;20802;-61
2021/07/09 11:19:50;;;;;;;8.65;7.85;;;;;;;33.80;31.12;97278.25;5009286;28;20050;-62
2021/07/09 11:22:16;;;;;;;8.20;7.72;;;;;;;32.18;32.89;97275.00;5012234;28;20038;-59
2021/07/09 11:24:56;;;;;;;8.13;7.63;;;;;;;31.49;33.45;97243.84;5014557;28;20041;-65
2021/07/09 11:27:24;;;;;;;8.18;6.95;;;;;;;32.48;33.41;97267.69;5016182;28;20520;-66
2021/07/09 11:29:50;;;;;;;8.23;7.53;;;;;;;32.86;32.36;97224.09;5007913;28;20037;-64